Latest Weather Observations for Armament Jetty

IDW60901

Issued at 9:11 pm WST Tuesday 17 September 2019 (issued every 10 minutes, with the page automatically refreshed every 10 minutes)

About weather observations | Map of Perth area stations | Latest observations for Perth area | Other Formats
Station Details ID: 009254 Name: ARMAMENT JETTY Lat: -32.18 Lon: 115.68 Height: 9.0 m
Data from the previous 72 hours. | See also: Recent months for locations in Western Australia
Date/Time
WST
Temp
°C
App
Temp
°C
Dew
Point
°C
Rel
Hum
%
Delta-T
°C
Wind Press
QNH
hPa
Press
MSL
hPa
Rain since
9am
mm
Dir  Spd
km/h
Gust
km/h
Spd
kts
Gust
kts
17/09:00pm - - - - - S 11 13 6 7 - - -
17/08:30pm - - - - - S 13 15 7 8 - - -
17/08:00pm - - - - - SSW 15 19 8 10 - - -
17/07:30pm - - - - - SSE 13 15 7 8 - - -
17/07:00pm - - - - - S 15 17 8 9 - - -
17/06:30pm - - - - - S 17 19 9 10 - - -
17/06:00pm - - - - - SSW 19 26 10 14 - - -
17/05:30pm - - - - - SSW 20 28 11 15 - - -
17/05:00pm - - - - - SSW 22 28 12 15 - - -
17/04:30pm - - - - - SSW 22 28 12 15 - - -
17/04:00pm - - - - - SSW 22 28 12 15 - - -
17/03:30pm - - - - - SSW 22 28 12 15 - - -
17/03:00pm - - - - - SSW 24 30 13 16 - - -
17/02:30pm - - - - - SSW 22 28 12 15 - - -
17/02:00pm - - - - - SSW 22 28 12 15 - - -
17/01:30pm - - - - - SSW 19 24 10 13 - - -
17/01:00pm - - - - - SSW 15 20 8 11 - - -
17/12:30pm - - - - - SW 19 24 10 13 - - -
17/12:00pm - - - - - SW 17 20 9 11 - - -
17/11:30am - - - - - SW 15 20 8 11 - - -
17/11:00am - - - - - WSW 15 26 8 14 - - -
17/10:30am - - - - - WSW 19 26 10 14 - - -
17/10:00am - - - - - WSW 20 26 11 14 - - -
17/09:30am - - - - - W 13 19 7 10 - - -
17/09:00am - - - - - W 15 19 8 10 - - -
17/08:30am - - - - - WNW 13 17 7 9 - - -
17/08:00am - - - - - N 9 11 5 6 - - -
17/07:30am - - - - - CALM 0 0 0 0 - - -
17/07:00am - - - - - WNW 7 9 4 5 - - -
17/06:30am - - - - - NW 9 9 5 5 - - -
17/06:00am - - - - - NNW 9 9 5 5 - - -
17/05:30am - - - - - N 9 9 5 5 - - -
17/05:00am - - - - - NNE 11 11 6 6 - - -
17/04:30am - - - - - NE 7 11 4 6 - - -
17/04:00am - - - - - E 9 9 5 5 - - -
17/03:30am - - - - - S 7 9 4 5 - - -
17/03:00am - - - - - S 9 11 5 6 - - -
17/02:30am - - - - - S 4 11 2 6 - - -
17/02:00am - - - - - S 7 9 4 5 - - -
17/01:30am - - - - - SSE 9 11 5 6 - - -
17/01:00am - - - - - S 13 15 7 8 - - -
17/12:30am - - - - - S 11 15 6 8 - - -
17/12:00am - - - - - S 11 13 6 7 - - -
 
Date/Time
WST
Temp
°C
App
Temp
°C
Dew
Point
°C
Rel
Hum
%
Delta-T
°C
Wind Press
QNH
hPa
Press
MSL
hPa
Rain since
9am
mm
Dir  Spd
km/h
Gust
km/h
Spd
kts
Gust
kts
16/11:30pm - - - - - SSE 13 15 7 8 - - -
16/11:00pm - - - - - SSE 15 17 8 9 - - -
16/10:30pm - - - - - S 13 17 7 9 - - -
16/10:00pm - - - - - SSE 17 19 9 10 - - -
16/09:30pm - - - - - S 11 13 6 7 - - -
16/09:00pm - - - - - SSE 13 17 7 9 - - -
16/08:30pm - - - - - S 13 15 7 8 - - -
16/08:00pm - - - - - SE 15 17 8 9 - - -
16/07:30pm - - - - - SE 19 22 10 12 - - -
16/07:00pm - - - - - SSE 19 22 10 12 - - -
16/06:30pm - - - - - SSE 17 19 9 10 - - -
16/06:00pm - - - - - SSE 22 28 12 15 - - -
16/05:30pm - - - - - S 24 30 13 16 - - -
16/05:00pm - - - - - S 20 26 11 14 - - -
16/04:30pm - - - - - S 22 28 12 15 - - -
16/04:00pm - - - - - SSW 17 20 9 11 - - -
16/03:30pm - - - - - SSW 17 19 9 10 - - -
16/03:00pm - - - - - SW 13 15 7 8 - - -
16/02:30pm - - - - - SSE 9 9 5 5 - - -
16/02:00pm - - - - - ENE 2 13 1 7 - - -
16/01:30pm - - - - - NE 4 7 2 4 - - -
16/01:00pm - - - - - ENE 15 17 8 9 - - -
16/12:30pm - - - - - ENE 13 19 7 10 - - -
16/12:00pm - - - - - ENE 13 17 7 9 - - -
16/11:30am - - - - - ENE 17 19 9 10 - - -
16/11:00am - - - - - ENE 22 28 12 15 - - -
16/10:30am - - - - - ENE 26 30 14 16 - - -
16/10:00am - - - - - ENE 26 32 14 17 - - -
16/09:30am - - - - - ENE 28 32 15 17 - - -
16/09:00am - - - - - ENE 28 33 15 18 - - -
16/08:30am - - - - - ENE 30 35 16 19 - - -
16/08:00am - - - - - ENE 30 37 16 20 - - -
16/07:30am - - - - - ENE 30 35 16 19 - - -
16/07:00am - - - - - ENE 32 41 17 22 - - -
16/06:30am - - - - - ENE 33 41 18 22 - - -
16/06:00am - - - - - ENE 37 48 20 26 - - -
16/05:30am - - - - - ENE 35 43 19 23 - - -
16/05:00am - - - - - ENE 41 50 22 27 - - -
16/04:30am - - - - - ENE 41 50 22 27 - - -
16/04:00am - - - - - ENE 39 46 21 25 - - -
16/03:33am - - - - - ENE 32 50 17 27 - - -
16/03:30am - - - - - ENE 30 39 16 21 - - -
16/03:00am - - - - - ENE 33 41 18 22 - - -
16/02:30am - - - - - E 30 37 16 20 - - -
16/02:00am - - - - - ENE 33 37 18 20 - - -
16/01:30am - - - - - ENE 39 46 21 25 - - -
16/01:00am - - - - - E 28 41 15 22 - - -
16/12:30am - - - - - ESE 32 35 17 19 - - -
16/12:00am - - - - - ESE 30 33 16 18 - - -
 
Date/Time
WST
Temp
°C
App
Temp
°C
Dew
Point
°C
Rel
Hum
%
Delta-T
°C
Wind Press
QNH
hPa
Press
MSL
hPa
Rain since
9am
mm
Dir  Spd
km/h
Gust
km/h
Spd
kts
Gust
kts
15/11:30pm - - - - - ESE 20 24 11 13 - - -
15/11:00pm - - - - - ESE 20 24 11 13 - - -
15/10:30pm - - - - - ESE 19 22 10 12 - - -
15/10:00pm - - - - - SE 20 24 11 13 - - -
15/09:30pm - - - - - SE 19 22 10 12 - - -
15/09:00pm - - - - - SE 26 30 14 16 - - -
15/08:30pm - - - - - SE 32 35 17 19 - - -
15/08:00pm - - - - - SE 28 33 15 18 - - -
15/07:30pm - - - - - SSE 22 28 12 15 - - -
15/07:00pm - - - - - SSE 19 24 10 13 - - -
15/06:30pm - - - - - S 24 30 13 16 - - -
15/06:00pm - - - - - S 28 35 15 19 - - -
15/05:30pm - - - - - S 32 39 17 21 - - -
15/05:00pm - - - - - S 33 39 18 21 - - -
15/04:30pm - - - - - S 32 39 17 21 - - -
15/04:00pm - - - - - S 33 39 18 21 - - -
15/03:30pm - - - - - S 37 44 20 24 - - -
15/03:00pm - - - - - S 35 41 19 22 - - -
15/02:30pm - - - - - S 33 41 18 22 - - -
15/02:00pm - - - - - SSW 32 39 17 21 - - -
15/01:30pm - - - - - S 32 37 17 20 - - -
15/01:00pm - - - - - S 28 32 15 17 - - -
15/12:30pm - - - - - S 26 32 14 17 - - -
15/12:00pm - - - - - S 26 30 14 16 - - -
15/11:30am - - - - - S 24 30 13 16 - - -
15/11:00am - - - - - S 22 28 12 15 - - -
15/10:30am - - - - - S 19 24 10 13 - - -
15/10:00am - - - - - SE 17 20 9 11 - - -
15/09:30am - - - - - SE 17 19 9 10 - - -
15/09:00am - - - - - SE 20 24 11 13 - - -
15/08:30am - - - - - ESE 22 28 12 15 - - -
15/08:00am - - - - - SE 24 28 13 15 - - -
15/07:30am - - - - - SE 24 28 13 15 - - -
15/07:00am - - - - - SE 26 28 14 15 - - -
15/06:30am - - - - - SSE 28 32 15 17 - - -
15/06:00am - - - - - SSE 26 30 14 16 - - -
15/05:30am - - - - - SE 28 32 15 17 - - -
15/05:00am - - - - - SE 28 32 15 17 - - -
15/04:30am - - - - - SE 28 32 15 17 - - -
15/04:00am - - - - - SSE 30 33 16 18 - - -
15/03:30am - - - - - SE 32 37 17 20 - - -
15/03:00am - - - - - SSE 30 35 16 19 - - -
15/02:30am - - - - - SSE 32 39 17 21 - - -
15/02:00am - - - - - SSE 32 39 17 21 - - -
15/01:30am - - - - - SSE 32 37 17 20 - - -
15/01:00am - - - - - SSE 33 39 18 21 - - -
15/12:30am - - - - - SSE 28 37 15 20 - - -
15/12:00am - - - - - SSE 30 35 16 19 - - -
 
Date/Time
WST
Temp
°C
App
Temp
°C
Dew
Point
°C
Rel
Hum
%
Delta-T
°C
Wind Press
QNH
hPa
Press
MSL
hPa
Rain since
9am
mm
Dir  Spd
km/h
Gust
km/h
Spd
kts
Gust
kts
14/11:30pm - - - - - SSE 28 35 15 19 - - -
14/11:00pm - - - - - S 19 24 10 13 - - -
14/10:30pm - - - - - SSE 28 32 15 17 - - -
14/10:00pm - - - - - SSE 28 35 15 19 - - -
14/09:30pm - - - - - S 26 32 14 17 - - -

Latest Capital City Observations: Canberra | Sydney | Melbourne | Brisbane | Adelaide | Perth | Hobart | Darwin

Other formats

Comma delimited format used in spreadsheet applications
http://www.bom.gov.au/fwo/IDW60901/IDW60901.99254.axf

JavaScript Object Notation format (JSON) in row-major order
http://www.bom.gov.au/fwo/IDW60901/IDW60901.99254.json

Data quality

Most of these data are generated automatically and are frequently updated. Quality checks on data are not normally performed. It is possible for incorrect values to appear. Refer to information at About Latest Weather Observations and please check the disclaimer before using these data.